sensor_id;sensor_type;location;lat;lon;timestamp;P1;durP1;ratioP1;P2;durP2;ratioP2
32365;SDS011;18837;46.832;16.838;2022-08-18T00:02:24;3.10;;;2.80;;
32365;SDS011;18837;46.832;16.838;2022-08-18T00:04:52;3.90;;;3.37;;
32365;SDS011;18837;46.832;16.838;2022-08-18T00:07:21;3.10;;;2.90;;
32365;SDS011;18837;46.832;16.838;2022-08-18T00:09:49;3.20;;;2.90;;
32365;SDS011;18837;46.832;16.838;2022-08-18T00:12:17;3.43;;;3.13;;
32365;SDS011;18837;46.832;16.838;2022-08-18T00:14:44;3.20;;;2.90;;
32365;SDS011;18837;46.832;16.838;2022-08-18T00:17:11;4.10;;;3.10;;
32365;SDS011;18837;46.832;16.838;2022-08-18T00:19:37;3.40;;;3.00;;
32365;SDS011;18837;46.832;16.838;2022-08-18T00:22:03;2.97;;;2.70;;
32365;SDS011;18837;46.832;16.838;2022-08-18T00:24:29;3.00;;;2.80;;
32365;SDS011;18837;46.832;16.838;2022-08-18T00:26:55;2.93;;;2.73;;
32365;SDS011;18837;46.832;16.838;2022-08-18T00:29:21;3.30;;;3.00;;
32365;SDS011;18837;46.832;16.838;2022-08-18T00:31:47;3.97;;;3.00;;
32365;SDS011;18837;46.832;16.838;2022-08-18T00:34:15;3.33;;;3.13;;
32365;SDS011;18837;46.832;16.838;2022-08-18T00:36:41;2.97;;;2.67;;
32365;SDS011;18837;46.832;16.838;2022-08-18T00:39:07;3.23;;;2.83;;
32365;SDS011;18837;46.832;16.838;2022-08-18T00:41:33;3.23;;;2.93;;
32365;SDS011;18837;46.832;16.838;2022-08-18T00:43:59;3.47;;;3.17;;
32365;SDS011;18837;46.832;16.838;2022-08-18T00:46:27;3.97;;;3.37;;
32365;SDS011;18837;46.832;16.838;2022-08-18T00:48:57;3.37;;;3.07;;
32365;SDS011;18837;46.832;16.838;2022-08-18T00:51:33;3.33;;;3.03;;
32365;SDS011;18837;46.832;16.838;2022-08-18T00:54:09;3.67;;;2.90;;
32365;SDS011;18837;46.832;16.838;2022-08-18T00:56:49;3.37;;;3.07;;
32365;SDS011;18837;46.832;16.838;2022-08-18T01:01:48;3.10;;;2.90;;
32365;SDS011;18837;46.832;16.838;2022-08-18T01:04:17;3.40;;;3.10;;
32365;SDS011;18837;46.832;16.838;2022-08-18T01:06:52;3.47;;;2.70;;
32365;SDS011;18837;46.832;16.838;2022-08-18T01:09:26;3.17;;;2.80;;
32365;SDS011;18837;46.832;16.838;2022-08-18T01:11:52;3.93;;;3.00;;
32365;SDS011;18837;46.832;16.838;2022-08-18T01:14:18;3.03;;;2.73;;
32365;SDS011;18837;46.832;16.838;2022-08-18T01:16:45;3.90;;;3.30;;
32365;SDS011;18837;46.832;16.838;2022-08-18T01:19:30;3.33;;;3.07;;
32365;SDS011;18837;46.832;16.838;2022-08-18T01:24:50;3.23;;;2.80;;
32365;SDS011;18837;46.832;16.838;2022-08-18T01:27:37;5.50;;;3.20;;
32365;SDS011;18837;46.832;16.838;2022-08-18T01:30:06;3.13;;;2.93;;
32365;SDS011;18837;46.832;16.838;2022-08-18T01:32:34;3.60;;;3.03;;
32365;SDS011;18837;46.832;16.838;2022-08-18T01:35:01;2.90;;;2.70;;
32365;SDS011;18837;46.832;16.838;2022-08-18T01:37:28;3.13;;;2.83;;
32365;SDS011;18837;46.832;16.838;2022-08-18T01:40:04;3.47;;;3.00;;
32365;SDS011;18837;46.832;16.838;2022-08-18T01:45:34;3.23;;;2.93;;
32365;SDS011;18837;46.832;16.838;2022-08-18T01:48:00;3.63;;;3.33;;
32365;SDS011;18837;46.832;16.838;2022-08-18T01:50:28;4.63;;;3.00;;
32365;SDS011;18837;46.832;16.838;2022-08-18T01:52:54;3.47;;;3.17;;
32365;SDS011;18837;46.832;16.838;2022-08-18T01:55:20;5.17;;;3.30;;
32365;SDS011;18837;46.832;16.838;2022-08-18T01:57:46;3.43;;;3.13;;
32365;SDS011;18837;46.832;16.838;2022-08-18T02:00:12;3.50;;;3.20;;
32365;SDS011;18837;46.832;16.838;2022-08-18T02:02:39;3.27;;;2.97;;
32365;SDS011;18837;46.832;16.838;2022-08-18T02:05:07;3.20;;;2.80;;
32365;SDS011;18837;46.832;16.838;2022-08-18T02:07:40;3.30;;;3.00;;
32365;SDS011;18837;46.832;16.838;2022-08-18T02:10:06;3.50;;;3.20;;
32365;SDS011;18837;46.832;16.838;2022-08-18T02:12:34;3.60;;;3.10;;
32365;SDS011;18837;46.832;16.838;2022-08-18T02:15:02;3.80;;;3.50;;
32365;SDS011;18837;46.832;16.838;2022-08-18T02:17:36;3.53;;;3.23;;
32365;SDS011;18837;46.832;16.838;2022-08-18T02:20:03;3.67;;;3.20;;
32365;SDS011;18837;46.832;16.838;2022-08-18T02:22:29;3.73;;;3.43;;
32365;SDS011;18837;46.832;16.838;2022-08-18T02:24:55;3.40;;;3.10;;
32365;SDS011;18837;46.832;16.838;2022-08-18T02:27:21;3.33;;;3.03;;
32365;SDS011;18837;46.832;16.838;2022-08-18T02:29:47;4.93;;;3.10;;
32365;SDS011;18837;46.832;16.838;2022-08-18T02:32:13;4.47;;;3.53;;
32365;SDS011;18837;46.832;16.838;2022-08-18T02:34:38;3.50;;;3.20;;
32365;SDS011;18837;46.832;16.838;2022-08-18T02:37:06;3.70;;;3.40;;
32365;SDS011;18837;46.832;16.838;2022-08-18T02:39:34;3.60;;;3.30;;
32365;SDS011;18837;46.832;16.838;2022-08-18T02:42:02;3.30;;;3.03;;
32365;SDS011;18837;46.832;16.838;2022-08-18T02:44:29;2.73;;;2.53;;
32365;SDS011;18837;46.832;16.838;2022-08-18T02:46:56;3.23;;;2.93;;
32365;SDS011;18837;46.832;16.838;2022-08-18T02:49:22;3.67;;;3.37;;
32365;SDS011;18837;46.832;16.838;2022-08-18T02:51:49;3.77;;;3.00;;
32365;SDS011;18837;46.832;16.838;2022-08-18T02:54:16;3.87;;;3.57;;
32365;SDS011;18837;46.832;16.838;2022-08-18T02:56:43;3.87;;;3.10;;
32365;SDS011;18837;46.832;16.838;2022-08-18T02:59:13;3.53;;;3.23;;
32365;SDS011;18837;46.832;16.838;2022-08-18T03:01:42;4.00;;;3.27;;
32365;SDS011;18837;46.832;16.838;2022-08-18T03:04:11;3.90;;;3.50;;
32365;SDS011;18837;46.832;16.838;2022-08-18T03:06:40;3.37;;;3.07;;
32365;SDS011;18837;46.832;16.838;2022-08-18T03:09:06;5.93;;;3.63;;
32365;SDS011;18837;46.832;16.838;2022-08-18T03:11:34;3.53;;;3.23;;
32365;SDS011;18837;46.832;16.838;2022-08-18T03:14:01;4.53;;;3.23;;
32365;SDS011;18837;46.832;16.838;2022-08-18T03:16:26;3.77;;;3.27;;
32365;SDS011;18837;46.832;16.838;2022-08-18T03:18:55;4.30;;;3.60;;
32365;SDS011;18837;46.832;16.838;2022-08-18T03:21:23;3.73;;;3.20;;
32365;SDS011;18837;46.832;16.838;2022-08-18T03:23:52;5.37;;;3.30;;
32365;SDS011;18837;46.832;16.838;2022-08-18T03:26:28;3.93;;;3.43;;
32365;SDS011;18837;46.832;16.838;2022-08-18T03:29:00;5.03;;;3.27;;
32365;SDS011;18837;46.832;16.838;2022-08-18T03:31:27;3.93;;;3.13;;
32365;SDS011;18837;46.832;16.838;2022-08-18T03:33:55;3.80;;;3.50;;
32365;SDS011;18837;46.832;16.838;2022-08-18T03:36:24;4.60;;;3.70;;
32365;SDS011;18837;46.832;16.838;2022-08-18T03:38:51;4.27;;;3.43;;
32365;SDS011;18837;46.832;16.838;2022-08-18T03:41:19;4.63;;;3.23;;
32365;SDS011;18837;46.832;16.838;2022-08-18T03:43:50;5.33;;;4.30;;
32365;SDS011;18837;46.832;16.838;2022-08-18T03:46:17;4.13;;;3.10;;
32365;SDS011;18837;46.832;16.838;2022-08-18T03:48:44;4.53;;;3.30;;
32365;SDS011;18837;46.832;16.838;2022-08-18T03:51:16;7.03;;;3.50;;
32365;SDS011;18837;46.832;16.838;2022-08-18T03:53:50;4.07;;;3.67;;
32365;SDS011;18837;46.832;16.838;2022-08-18T03:56:24;5.27;;;3.47;;
32365;SDS011;18837;46.832;16.838;2022-08-18T03:59:11;3.87;;;3.53;;
32365;SDS011;18837;46.832;16.838;2022-08-18T04:01:45;4.40;;;3.60;;
32365;SDS011;18837;46.832;16.838;2022-08-18T04:04:14;5.37;;;3.43;;
32365;SDS011;18837;46.832;16.838;2022-08-18T04:06:56;3.93;;;3.37;;
32365;SDS011;18837;46.832;16.838;2022-08-18T04:09:24;5.37;;;3.13;;
32365;SDS011;18837;46.832;16.838;2022-08-18T04:11:52;4.80;;;3.53;;
32365;SDS011;18837;46.832;16.838;2022-08-18T04:14:19;4.00;;;3.60;;
32365;SDS011;18837;46.832;16.838;2022-08-18T04:19:35;4.07;;;3.33;;
32365;SDS011;18837;46.832;16.838;2022-08-18T04:22:02;4.53;;;3.70;;
32365;SDS011;18837;46.832;16.838;2022-08-18T04:24:29;4.27;;;3.50;;
32365;SDS011;18837;46.832;16.838;2022-08-18T04:26:56;4.20;;;3.80;;
32365;SDS011;18837;46.832;16.838;2022-08-18T04:29:23;3.97;;;3.47;;
32365;SDS011;18837;46.832;16.838;2022-08-18T04:31:49;3.97;;;3.67;;
32365;SDS011;18837;46.832;16.838;2022-08-18T04:34:28;5.27;;;3.70;;
32365;SDS011;18837;46.832;16.838;2022-08-18T04:36:56;5.47;;;3.70;;
32365;SDS011;18837;46.832;16.838;2022-08-18T04:39:21;5.80;;;3.83;;
32365;SDS011;18837;46.832;16.838;2022-08-18T04:41:48;4.00;;;3.43;;
32365;SDS011;18837;46.832;16.838;2022-08-18T04:44:14;4.57;;;3.70;;
32365;SDS011;18837;46.832;16.838;2022-08-18T04:46:42;4.00;;;3.60;;
32365;SDS011;18837;46.832;16.838;2022-08-18T04:49:11;5.83;;;3.67;;
32365;SDS011;18837;46.832;16.838;2022-08-18T04:51:40;4.30;;;3.40;;
32365;SDS011;18837;46.832;16.838;2022-08-18T04:54:09;4.80;;;4.00;;
32365;SDS011;18837;46.832;16.838;2022-08-18T04:56:36;4.47;;;3.53;;
32365;SDS011;18837;46.832;16.838;2022-08-18T04:59:07;5.13;;;3.47;;
32365;SDS011;18837;46.832;16.838;2022-08-18T05:01:42;5.00;;;3.10;;
32365;SDS011;18837;46.832;16.838;2022-08-18T05:04:10;4.00;;;3.60;;
32365;SDS011;18837;46.832;16.838;2022-08-18T05:06:37;4.63;;;3.17;;
32365;SDS011;18837;46.832;16.838;2022-08-18T05:09:05;5.27;;;3.50;;
32365;SDS011;18837;46.832;16.838;2022-08-18T05:11:32;3.93;;;3.53;;
32365;SDS011;18837;46.832;16.838;2022-08-18T05:14:00;5.60;;;3.40;;
32365;SDS011;18837;46.832;16.838;2022-08-18T05:16:27;4.20;;;3.60;;
32365;SDS011;18837;46.832;16.838;2022-08-18T05:18:53;5.47;;;4.00;;
32365;SDS011;18837;46.832;16.838;2022-08-18T05:21:19;5.90;;;3.87;;
32365;SDS011;18837;46.832;16.838;2022-08-18T05:23:51;3.83;;;3.53;;
32365;SDS011;18837;46.832;16.838;2022-08-18T05:26:17;4.33;;;3.83;;
32365;SDS011;18837;46.832;16.838;2022-08-18T05:28:43;3.97;;;3.57;;
32365;SDS011;18837;46.832;16.838;2022-08-18T05:31:11;5.07;;;3.87;;
32365;SDS011;18837;46.832;16.838;2022-08-18T05:33:43;4.20;;;3.80;;
32365;SDS011;18837;46.832;16.838;2022-08-18T05:39:05;8.53;;;4.40;;
32365;SDS011;18837;46.832;16.838;2022-08-18T05:41:52;8.57;;;4.50;;
32365;SDS011;18837;46.832;16.838;2022-08-18T05:44:26;8.47;;;4.63;;
32365;SDS011;18837;46.832;16.838;2022-08-18T05:46:58;7.00;;;4.10;;
32365;SDS011;18837;46.832;16.838;2022-08-18T05:49:30;6.47;;;4.80;;
32365;SDS011;18837;46.832;16.838;2022-08-18T05:52:00;7.33;;;4.83;;
32365;SDS011;18837;46.832;16.838;2022-08-18T05:54:33;5.43;;;4.30;;
32365;SDS011;18837;46.832;16.838;2022-08-18T05:57:21;7.23;;;4.70;;
32365;SDS011;18837;46.832;16.838;2022-08-18T05:59:51;6.67;;;4.13;;
32365;SDS011;18837;46.832;16.838;2022-08-18T06:02:29;7.70;;;4.40;;
32365;SDS011;18837;46.832;16.838;2022-08-18T06:10:03;5.63;;;4.20;;
32365;SDS011;18837;46.832;16.838;2022-08-18T06:12:39;5.67;;;4.30;;
32365;SDS011;18837;46.832;16.838;2022-08-18T06:29:17;6.73;;;3.97;;
32365;SDS011;18837;46.832;16.838;2022-08-18T06:32:09;4.10;;;3.80;;
32365;SDS011;18837;46.832;16.838;2022-08-18T06:34:57;6.53;;;4.37;;
32365;SDS011;18837;46.832;16.838;2022-08-18T06:40:32;9.50;;;4.63;;
32365;SDS011;18837;46.832;16.838;2022-08-18T06:42:59;5.17;;;4.03;;
32365;SDS011;18837;46.832;16.838;2022-08-18T06:45:27;8.30;;;4.80;;
32365;SDS011;18837;46.832;16.838;2022-08-18T06:50:40;6.70;;;4.73;;
32365;SDS011;18837;46.832;16.838;2022-08-18T06:53:20;9.03;;;4.70;;
32365;SDS011;18837;46.832;16.838;2022-08-18T06:55:47;6.73;;;4.60;;
32365;SDS011;18837;46.832;16.838;2022-08-18T07:00:43;5.80;;;4.73;;
32365;SDS011;18837;46.832;16.838;2022-08-18T07:03:18;5.77;;;4.83;;
32365;SDS011;18837;46.832;16.838;2022-08-18T07:08:37;6.03;;;4.80;;
32365;SDS011;18837;46.832;16.838;2022-08-18T07:16:45;9.20;;;5.00;;
32365;SDS011;18837;46.832;16.838;2022-08-18T07:19:12;7.23;;;5.20;;
32365;SDS011;18837;46.832;16.838;2022-08-18T07:21:41;5.53;;;4.30;;
32365;SDS011;18837;46.832;16.838;2022-08-18T07:24:26;6.67;;;4.70;;
32365;SDS011;18837;46.832;16.838;2022-08-18T07:27:00;6.37;;;4.90;;
32365;SDS011;18837;46.832;16.838;2022-08-18T07:29:33;5.57;;;4.37;;
32365;SDS011;18837;46.832;16.838;2022-08-18T07:32:06;5.00;;;4.50;;
32365;SDS011;18837;46.832;16.838;2022-08-18T07:34:47;5.60;;;4.27;;
32365;SDS011;18837;46.832;16.838;2022-08-18T07:37:18;5.33;;;4.50;;
32365;SDS011;18837;46.832;16.838;2022-08-18T07:42:53;4.83;;;4.27;;
32365;SDS011;18837;46.832;16.838;2022-08-18T07:45:40;6.57;;;4.17;;
32365;SDS011;18837;46.832;16.838;2022-08-18T07:48:11;4.80;;;4.23;;
32365;SDS011;18837;46.832;16.838;2022-08-18T07:50:52;6.23;;;4.57;;
32365;SDS011;18837;46.832;16.838;2022-08-18T08:13:22;6.37;;;4.30;;
32365;SDS011;18837;46.832;16.838;2022-08-18T08:19:03;4.47;;;4.07;;
32365;SDS011;18837;46.832;16.838;2022-08-18T08:21:35;4.70;;;4.20;;
32365;SDS011;18837;46.832;16.838;2022-08-18T08:24:28;4.83;;;4.40;;
32365;SDS011;18837;46.832;16.838;2022-08-18T08:27:08;4.27;;;3.87;;
32365;SDS011;18837;46.832;16.838;2022-08-18T08:30:05;4.70;;;4.30;;
32365;SDS011;18837;46.832;16.838;2022-08-18T08:41:12;4.43;;;4.07;;
32365;SDS011;18837;46.832;16.838;2022-08-18T08:44:02;4.60;;;4.20;;
32365;SDS011;18837;46.832;16.838;2022-08-18T08:46:53;6.10;;;3.80;;
32365;SDS011;18837;46.832;16.838;2022-08-18T08:49:51;4.80;;;4.10;;
32365;SDS011;18837;46.832;16.838;2022-08-18T08:52:28;5.03;;;4.23;;
32365;SDS011;18837;46.832;16.838;2022-08-18T08:55:04;5.23;;;4.27;;
32365;SDS011;18837;46.832;16.838;2022-08-18T08:57:48;4.77;;;4.00;;
32365;SDS011;18837;46.832;16.838;2022-08-18T09:00:32;4.23;;;3.87;;
32365;SDS011;18837;46.832;16.838;2022-08-18T09:11:47;5.93;;;4.77;;
32365;SDS011;18837;46.832;16.838;2022-08-18T09:22:23;5.10;;;4.17;;
32365;SDS011;18837;46.832;16.838;2022-08-18T09:24:58;5.23;;;4.40;;
32365;SDS011;18837;46.832;16.838;2022-08-18T09:29:59;5.37;;;4.33;;
32365;SDS011;18837;46.832;16.838;2022-08-18T09:38:09;4.33;;;3.93;;
32365;SDS011;18837;46.832;16.838;2022-08-18T09:41:11;4.37;;;3.63;;
32365;SDS011;18837;46.832;16.838;2022-08-18T09:44:11;5.73;;;3.67;;
32365;SDS011;18837;46.832;16.838;2022-08-18T09:51:52;4.50;;;3.87;;
32365;SDS011;18837;46.832;16.838;2022-08-18T09:54:23;4.83;;;3.67;;
32365;SDS011;18837;46.832;16.838;2022-08-18T09:56:57;4.00;;;3.60;;
32365;SDS011;18837;46.832;16.838;2022-08-18T10:07:50;3.87;;;3.47;;
32365;SDS011;18837;46.832;16.838;2022-08-18T10:10:36;3.50;;;3.20;;
32365;SDS011;18837;46.832;16.838;2022-08-18T10:16:39;4.00;;;3.53;;
32365;SDS011;18837;46.832;16.838;2022-08-18T10:22:42;4.17;;;3.60;;
32365;SDS011;18837;46.832;16.838;2022-08-18T10:25:12;5.77;;;3.20;;
32365;SDS011;18837;46.832;16.838;2022-08-18T10:27:54;10.47;;;7.27;;
32365;SDS011;18837;46.832;16.838;2022-08-18T10:33:11;6.20;;;5.07;;
32365;SDS011;18837;46.832;16.838;2022-08-18T10:35:57;6.07;;;4.50;;
32365;SDS011;18837;46.832;16.838;2022-08-18T10:38:27;6.90;;;4.47;;
32365;SDS011;18837;46.832;16.838;2022-08-18T10:41:22;5.27;;;3.60;;
32365;SDS011;18837;46.832;16.838;2022-08-18T10:43:53;5.50;;;3.83;;
32365;SDS011;18837;46.832;16.838;2022-08-18T10:46:23;4.93;;;3.90;;
32365;SDS011;18837;46.832;16.838;2022-08-18T10:55:12;4.77;;;4.00;;
32365;SDS011;18837;46.832;16.838;2022-08-18T10:58:00;4.97;;;4.30;;
32365;SDS011;18837;46.832;16.838;2022-08-18T11:06:00;4.43;;;3.80;;
32365;SDS011;18837;46.832;16.838;2022-08-18T11:11:24;5.40;;;3.67;;
32365;SDS011;18837;46.832;16.838;2022-08-18T11:16:41;4.00;;;3.60;;
32365;SDS011;18837;46.832;16.838;2022-08-18T11:19:15;3.80;;;3.33;;
32365;SDS011;18837;46.832;16.838;2022-08-18T11:21:44;4.70;;;3.93;;
32365;SDS011;18837;46.832;16.838;2022-08-18T11:24:30;4.13;;;3.70;;
32365;SDS011;18837;46.832;16.838;2022-08-18T11:27:30;4.60;;;3.33;;
32365;SDS011;18837;46.832;16.838;2022-08-18T11:30:00;3.57;;;3.27;;
32365;SDS011;18837;46.832;16.838;2022-08-18T11:46:26;3.23;;;2.93;;
32365;SDS011;18837;46.832;16.838;2022-08-18T11:48:54;5.07;;;3.33;;
32365;SDS011;18837;46.832;16.838;2022-08-18T11:53:58;3.73;;;3.40;;
32365;SDS011;18837;46.832;16.838;2022-08-18T11:56:28;4.53;;;3.30;;
32365;SDS011;18837;46.832;16.838;2022-08-18T12:02:20;4.57;;;3.30;;
32365;SDS011;18837;46.832;16.838;2022-08-18T12:04:56;4.27;;;3.23;;
32365;SDS011;18837;46.832;16.838;2022-08-18T12:07:31;3.93;;;2.87;;
32365;SDS011;18837;46.832;16.838;2022-08-18T12:12:50;4.90;;;2.87;;
32365;SDS011;18837;46.832;16.838;2022-08-18T12:17:58;4.63;;;3.30;;
32365;SDS011;18837;46.832;16.838;2022-08-18T12:20:24;6.63;;;2.80;;
32365;SDS011;18837;46.832;16.838;2022-08-18T12:22:50;5.07;;;3.37;;
32365;SDS011;18837;46.832;16.838;2022-08-18T12:25:19;3.87;;;3.00;;
32365;SDS011;18837;46.832;16.838;2022-08-18T12:27:45;4.37;;;3.17;;
32365;SDS011;18837;46.832;16.838;2022-08-18T12:30:11;4.00;;;2.97;;
32365;SDS011;18837;46.832;16.838;2022-08-18T12:35:56;4.83;;;3.27;;
32365;SDS011;18837;46.832;16.838;2022-08-18T12:38:22;3.73;;;2.90;;
32365;SDS011;18837;46.832;16.838;2022-08-18T12:40:48;5.93;;;2.97;;
32365;SDS011;18837;46.832;16.838;2022-08-18T12:43:14;4.50;;;2.83;;
32365;SDS011;18837;46.832;16.838;2022-08-18T12:45:40;7.07;;;3.50;;
32365;SDS011;18837;46.832;16.838;2022-08-18T12:48:06;6.10;;;2.90;;
32365;SDS011;18837;46.832;16.838;2022-08-18T12:53:18;5.83;;;2.87;;
32365;SDS011;18837;46.832;16.838;2022-08-18T12:55:44;5.47;;;3.33;;
32365;SDS011;18837;46.832;16.838;2022-08-18T12:58:10;6.60;;;3.17;;
32365;SDS011;18837;46.832;16.838;2022-08-18T13:00:36;4.17;;;2.90;;
32365;SDS011;18837;46.832;16.838;2022-08-18T13:03:04;5.20;;;3.10;;
32365;SDS011;18837;46.832;16.838;2022-08-18T13:05:30;4.93;;;3.10;;
32365;SDS011;18837;46.832;16.838;2022-08-18T13:13:41;4.20;;;2.90;;
32365;SDS011;18837;46.832;16.838;2022-08-18T13:16:07;4.03;;;2.47;;
32365;SDS011;18837;46.832;16.838;2022-08-18T13:18:34;3.97;;;3.20;;
32365;SDS011;18837;46.832;16.838;2022-08-18T13:21:00;6.70;;;3.00;;
32365;SDS011;18837;46.832;16.838;2022-08-18T13:23:27;7.20;;;2.90;;
32365;SDS011;18837;46.832;16.838;2022-08-18T13:26:12;4.80;;;2.70;;
32365;SDS011;18837;46.832;16.838;2022-08-18T13:28:50;5.77;;;3.10;;
32365;SDS011;18837;46.832;16.838;2022-08-18T13:31:16;4.07;;;2.80;;
32365;SDS011;18837;46.832;16.838;2022-08-18T13:33:42;5.00;;;2.87;;
32365;SDS011;18837;46.832;16.838;2022-08-18T13:36:07;5.27;;;3.03;;
32365;SDS011;18837;46.832;16.838;2022-08-18T13:38:33;5.73;;;2.83;;
32365;SDS011;18837;46.832;16.838;2022-08-18T13:41:11;4.93;;;2.67;;
32365;SDS011;18837;46.832;16.838;2022-08-18T13:43:42;6.93;;;3.20;;
32365;SDS011;18837;46.832;16.838;2022-08-18T13:46:19;13.27;;;3.60;;
32365;SDS011;18837;46.832;16.838;2022-08-18T13:48:45;11.53;;;3.30;;
32365;SDS011;18837;46.832;16.838;2022-08-18T13:51:12;8.17;;;3.30;;
32365;SDS011;18837;46.832;16.838;2022-08-18T13:53:44;8.33;;;2.97;;
32365;SDS011;18837;46.832;16.838;2022-08-18T13:56:10;8.63;;;3.40;;
32365;SDS011;18837;46.832;16.838;2022-08-18T13:58:36;9.07;;;2.97;;
32365;SDS011;18837;46.832;16.838;2022-08-18T14:01:04;8.57;;;3.30;;
32365;SDS011;18837;46.832;16.838;2022-08-18T14:03:32;7.97;;;3.13;;
32365;SDS011;18837;46.832;16.838;2022-08-18T14:05:59;4.43;;;2.70;;
32365;SDS011;18837;46.832;16.838;2022-08-18T14:08:27;7.20;;;3.00;;
32365;SDS011;18837;46.832;16.838;2022-08-18T14:10:55;6.77;;;3.17;;
32365;SDS011;18837;46.832;16.838;2022-08-18T14:13:26;7.90;;;2.83;;
32365;SDS011;18837;46.832;16.838;2022-08-18T14:16:11;7.83;;;3.47;;
32365;SDS011;18837;46.832;16.838;2022-08-18T14:18:52;6.63;;;3.20;;
32365;SDS011;18837;46.832;16.838;2022-08-18T14:21:43;3.80;;;2.90;;
32365;SDS011;18837;46.832;16.838;2022-08-18T14:24:30;7.03;;;2.90;;
32365;SDS011;18837;46.832;16.838;2022-08-18T14:27:16;5.47;;;3.17;;
32365;SDS011;18837;46.832;16.838;2022-08-18T14:29:42;6.90;;;3.43;;
32365;SDS011;18837;46.832;16.838;2022-08-18T14:32:10;7.60;;;3.40;;
32365;SDS011;18837;46.832;16.838;2022-08-18T14:34:39;7.70;;;3.53;;
32365;SDS011;18837;46.832;16.838;2022-08-18T14:37:09;5.93;;;3.20;;
32365;SDS011;18837;46.832;16.838;2022-08-18T14:39:35;6.27;;;3.20;;
32365;SDS011;18837;46.832;16.838;2022-08-18T14:42:00;7.80;;;3.13;;
32365;SDS011;18837;46.832;16.838;2022-08-18T14:44:27;7.73;;;3.40;;
32365;SDS011;18837;46.832;16.838;2022-08-18T14:46:52;6.47;;;2.90;;
32365;SDS011;18837;46.832;16.838;2022-08-18T14:49:22;6.00;;;3.20;;
32365;SDS011;18837;46.832;16.838;2022-08-18T14:52:03;6.43;;;3.13;;
32365;SDS011;18837;46.832;16.838;2022-08-18T14:54:42;6.53;;;3.43;;
32365;SDS011;18837;46.832;16.838;2022-08-18T14:57:08;5.83;;;3.33;;
32365;SDS011;18837;46.832;16.838;2022-08-18T14:59:36;7.27;;;3.30;;
32365;SDS011;18837;46.832;16.838;2022-08-18T15:02:02;8.27;;;3.53;;
32365;SDS011;18837;46.832;16.838;2022-08-18T15:04:29;9.70;;;3.90;;
32365;SDS011;18837;46.832;16.838;2022-08-18T15:06:55;6.17;;;3.47;;
32365;SDS011;18837;46.832;16.838;2022-08-18T15:09:26;9.23;;;3.67;;
32365;SDS011;18837;46.832;16.838;2022-08-18T15:11:54;8.63;;;3.23;;
32365;SDS011;18837;46.832;16.838;2022-08-18T15:14:25;7.33;;;3.20;;
32365;SDS011;18837;46.832;16.838;2022-08-18T15:16:54;6.30;;;3.10;;
32365;SDS011;18837;46.832;16.838;2022-08-18T15:19:22;5.97;;;3.13;;
32365;SDS011;18837;46.832;16.838;2022-08-18T15:21:50;6.87;;;3.13;;
32365;SDS011;18837;46.832;16.838;2022-08-18T15:24:53;6.33;;;3.13;;
32365;SDS011;18837;46.832;16.838;2022-08-18T15:30:30;5.03;;;2.73;;
32365;SDS011;18837;46.832;16.838;2022-08-18T15:32:57;7.30;;;3.07;;
32365;SDS011;18837;46.832;16.838;2022-08-18T15:35:23;5.77;;;3.40;;
32365;SDS011;18837;46.832;16.838;2022-08-18T15:37:49;6.20;;;3.10;;
32365;SDS011;18837;46.832;16.838;2022-08-18T15:40:18;5.90;;;3.37;;
32365;SDS011;18837;46.832;16.838;2022-08-18T15:42:55;7.37;;;3.47;;
32365;SDS011;18837;46.832;16.838;2022-08-18T15:45:33;6.77;;;3.00;;
32365;SDS011;18837;46.832;16.838;2022-08-18T15:48:02;4.87;;;2.77;;
32365;SDS011;18837;46.832;16.838;2022-08-18T15:50:29;9.07;;;3.17;;
32365;SDS011;18837;46.832;16.838;2022-08-18T15:52:59;7.37;;;3.80;;
32365;SDS011;18837;46.832;16.838;2022-08-18T15:55:28;4.83;;;3.13;;
32365;SDS011;18837;46.832;16.838;2022-08-18T15:57:55;5.60;;;3.23;;
32365;SDS011;18837;46.832;16.838;2022-08-18T16:00:27;4.70;;;2.63;;
32365;SDS011;18837;46.832;16.838;2022-08-18T16:03:04;4.93;;;2.77;;
32365;SDS011;18837;46.832;16.838;2022-08-18T16:05:33;5.10;;;3.13;;
32365;SDS011;18837;46.832;16.838;2022-08-18T16:08:01;4.57;;;2.90;;
32365;SDS011;18837;46.832;16.838;2022-08-18T16:10:30;6.27;;;2.60;;
32365;SDS011;18837;46.832;16.838;2022-08-18T16:12:57;5.03;;;2.90;;
32365;SDS011;18837;46.832;16.838;2022-08-18T16:15:25;4.37;;;2.90;;
32365;SDS011;18837;46.832;16.838;2022-08-18T16:17:54;4.87;;;3.10;;
32365;SDS011;18837;46.832;16.838;2022-08-18T16:20:23;5.70;;;2.83;;
32365;SDS011;18837;46.832;16.838;2022-08-18T16:22:49;4.27;;;2.97;;
32365;SDS011;18837;46.832;16.838;2022-08-18T16:25:16;6.23;;;3.03;;
32365;SDS011;18837;46.832;16.838;2022-08-18T16:27:42;4.80;;;2.87;;
32365;SDS011;18837;46.832;16.838;2022-08-18T16:30:12;5.17;;;3.07;;
32365;SDS011;18837;46.832;16.838;2022-08-18T16:32:40;6.20;;;2.90;;
32365;SDS011;18837;46.832;16.838;2022-08-18T16:35:06;3.87;;;2.77;;
32365;SDS011;18837;46.832;16.838;2022-08-18T16:37:37;6.93;;;3.00;;
32365;SDS011;18837;46.832;16.838;2022-08-18T16:40:04;5.30;;;3.27;;
32365;SDS011;18837;46.832;16.838;2022-08-18T16:42:30;5.50;;;2.93;;
32365;SDS011;18837;46.832;16.838;2022-08-18T16:44:59;6.67;;;2.90;;
32365;SDS011;18837;46.832;16.838;2022-08-18T16:47:26;7.23;;;3.10;;
32365;SDS011;18837;46.832;16.838;2022-08-18T16:49:52;6.60;;;2.97;;
32365;SDS011;18837;46.832;16.838;2022-08-18T16:52:21;6.30;;;3.00;;
32365;SDS011;18837;46.832;16.838;2022-08-18T16:54:47;5.13;;;2.57;;
32365;SDS011;18837;46.832;16.838;2022-08-18T16:57:13;5.03;;;2.50;;
32365;SDS011;18837;46.832;16.838;2022-08-18T16:59:59;5.43;;;3.00;;
32365;SDS011;18837;46.832;16.838;2022-08-18T17:02:45;5.10;;;2.70;;
32365;SDS011;18837;46.832;16.838;2022-08-18T17:05:29;5.63;;;2.70;;
32365;SDS011;18837;46.832;16.838;2022-08-18T17:07:56;3.53;;;2.80;;
32365;SDS011;18837;46.832;16.838;2022-08-18T17:10:29;6.20;;;2.57;;
32365;SDS011;18837;46.832;16.838;2022-08-18T17:13:07;4.67;;;2.80;;
32365;SDS011;18837;46.832;16.838;2022-08-18T17:15:33;4.10;;;2.30;;
32365;SDS011;18837;46.832;16.838;2022-08-18T17:17:59;7.97;;;3.87;;
32365;SDS011;18837;46.832;16.838;2022-08-18T17:20:25;4.63;;;2.57;;
32365;SDS011;18837;46.832;16.838;2022-08-18T17:22:51;5.90;;;2.67;;
32365;SDS011;18837;46.832;16.838;2022-08-18T17:25:17;5.77;;;3.00;;
32365;SDS011;18837;46.832;16.838;2022-08-18T17:27:47;3.17;;;2.27;;
32365;SDS011;18837;46.832;16.838;2022-08-18T17:30:15;6.77;;;2.53;;
32365;SDS011;18837;46.832;16.838;2022-08-18T17:32:50;2.57;;;2.20;;
32365;SDS011;18837;46.832;16.838;2022-08-18T17:35:23;3.63;;;2.50;;
32365;SDS011;18837;46.832;16.838;2022-08-18T17:37:55;6.33;;;2.50;;
32365;SDS011;18837;46.832;16.838;2022-08-18T17:40:30;4.67;;;2.60;;
32365;SDS011;18837;46.832;16.838;2022-08-18T17:42:59;5.97;;;2.50;;
32365;SDS011;18837;46.832;16.838;2022-08-18T17:49:30;5.00;;;2.63;;
32365;SDS011;18837;46.832;16.838;2022-08-18T17:52:10;6.33;;;2.50;;
32365;SDS011;18837;46.832;16.838;2022-08-18T17:54:39;4.67;;;2.40;;
32365;SDS011;18837;46.832;16.838;2022-08-18T17:57:11;7.47;;;2.70;;
32365;SDS011;18837;46.832;16.838;2022-08-18T17:59:43;8.23;;;2.23;;
32365;SDS011;18837;46.832;16.838;2022-08-18T18:02:26;7.87;;;2.43;;
32365;SDS011;18837;46.832;16.838;2022-08-18T18:04:55;7.33;;;2.30;;
32365;SDS011;18837;46.832;16.838;2022-08-18T18:07:26;9.50;;;2.53;;
32365;SDS011;18837;46.832;16.838;2022-08-18T18:09:59;11.97;;;2.73;;
32365;SDS011;18837;46.832;16.838;2022-08-18T18:12:34;5.87;;;2.20;;